sensor_id;sensor_type;location;lat;lon;timestamp;temperature;humidity
68719;DHT22;55696;52.138;5.444;2022-09-09T00:02:08;19.40;66.30
68719;DHT22;55696;52.138;5.444;2022-09-09T00:04:38;19.30;66.70
68719;DHT22;55696;52.138;5.444;2022-09-09T00:10:30;19.40;66.50
68719;DHT22;55696;52.138;5.444;2022-09-09T00:13:50;19.30;66.60
68719;DHT22;55696;52.138;5.444;2022-09-09T00:16:15;19.40;66.70
68719;DHT22;55696;52.138;5.444;2022-09-09T00:19:02;19.30;66.40
68719;DHT22;55696;52.138;5.444;2022-09-09T00:21:39;19.40;66.60
68719;DHT22;55696;52.138;5.444;2022-09-09T00:26:49;19.30;66.90
68719;DHT22;55696;52.138;5.444;2022-09-09T00:29:33;19.30;67.00
68719;DHT22;55696;52.138;5.444;2022-09-09T00:32:13;19.30;67.00
68719;DHT22;55696;52.138;5.444;2022-09-09T00:34:52;19.40;67.20
68719;DHT22;55696;52.138;5.444;2022-09-09T00:37:22;19.20;67.10
68719;DHT22;55696;52.138;5.444;2022-09-09T00:39:54;19.20;67.00
68719;DHT22;55696;52.138;5.444;2022-09-09T00:42:37;19.10;67.20
68719;DHT22;55696;52.138;5.444;2022-09-09T00:48:14;19.00;67.70
68719;DHT22;55696;52.138;5.444;2022-09-09T00:56:53;19.00;68.30
68719;DHT22;55696;52.138;5.444;2022-09-09T00:59:37;18.80;68.20
68719;DHT22;55696;52.138;5.444;2022-09-09T01:02:16;18.80;68.20
68719;DHT22;55696;52.138;5.444;2022-09-09T01:04:45;18.70;68.30
68719;DHT22;55696;52.138;5.444;2022-09-09T01:07:16;18.60;68.00
68719;DHT22;55696;52.138;5.444;2022-09-09T01:09:57;18.70;68.50
68719;DHT22;55696;52.138;5.444;2022-09-09T01:12:34;18.70;68.60
68719;DHT22;55696;52.138;5.444;2022-09-09T01:15:08;18.60;68.20
68719;DHT22;55696;52.138;5.444;2022-09-09T01:18:07;18.80;68.20
68719;DHT22;55696;52.138;5.444;2022-09-09T01:23:36;18.80;68.10
68719;DHT22;55696;52.138;5.444;2022-09-09T01:28:57;18.60;67.90
68719;DHT22;55696;52.138;5.444;2022-09-09T01:34:19;18.50;68.40
68719;DHT22;55696;52.138;5.444;2022-09-09T01:37:05;18.60;68.40
68719;DHT22;55696;52.138;5.444;2022-09-09T01:39:35;18.30;69.10
68719;DHT22;55696;52.138;5.444;2022-09-09T01:42:09;18.50;68.80
68719;DHT22;55696;52.138;5.444;2022-09-09T01:44:36;18.50;68.80
68719;DHT22;55696;52.138;5.444;2022-09-09T01:47:05;18.40;68.50
68719;DHT22;55696;52.138;5.444;2022-09-09T01:49:34;18.40;68.60
68719;DHT22;55696;52.138;5.444;2022-09-09T01:52:08;18.40;68.50
68719;DHT22;55696;52.138;5.444;2022-09-09T01:54:37;18.40;68.60
68719;DHT22;55696;52.138;5.444;2022-09-09T01:57:18;18.40;68.60
68719;DHT22;55696;52.138;5.444;2022-09-09T02:02:24;18.30;69.00
68719;DHT22;55696;52.138;5.444;2022-09-09T02:05:39;18.40;69.60
68719;DHT22;55696;52.138;5.444;2022-09-09T02:08:24;18.40;68.90
68719;DHT22;55696;52.138;5.444;2022-09-09T02:11:18;18.30;69.00
68719;DHT22;55696;52.138;5.444;2022-09-09T02:14:02;18.30;69.60
68719;DHT22;55696;52.138;5.444;2022-09-09T02:16:42;18.20;69.10
68719;DHT22;55696;52.138;5.444;2022-09-09T02:19:16;18.20;69.00
68719;DHT22;55696;52.138;5.444;2022-09-09T02:22:00;18.10;69.10
68719;DHT22;55696;52.138;5.444;2022-09-09T02:24:30;19.00;69.20
68719;DHT22;55696;52.138;5.444;2022-09-09T02:27:10;18.10;69.00
68719;DHT22;55696;52.138;5.444;2022-09-09T02:29:40;18.00;68.80
68719;DHT22;55696;52.138;5.444;2022-09-09T02:32:20;18.10;69.00
68719;DHT22;55696;52.138;5.444;2022-09-09T02:35:02;18.10;68.90
68719;DHT22;55696;52.138;5.444;2022-09-09T02:37:37;17.90;69.30
68719;DHT22;55696;52.138;5.444;2022-09-09T02:40:06;18.00;68.90
68719;DHT22;55696;52.138;5.444;2022-09-09T02:42:46;18.00;68.90
68719;DHT22;55696;52.138;5.444;2022-09-09T02:45:18;18.00;69.70
68719;DHT22;55696;52.138;5.444;2022-09-09T02:50:54;18.00;69.30
68719;DHT22;55696;52.138;5.444;2022-09-09T02:56:30;17.90;69.10
68719;DHT22;55696;52.138;5.444;2022-09-09T02:59:03;17.90;69.00
68719;DHT22;55696;52.138;5.444;2022-09-09T03:01:32;18.00;69.20
68719;DHT22;55696;52.138;5.444;2022-09-09T03:03:59;17.90;68.70
68719;DHT22;55696;52.138;5.444;2022-09-09T03:06:25;18.70;69.10
68719;DHT22;55696;52.138;5.444;2022-09-09T03:09:02;18.60;69.00
68719;DHT22;55696;52.138;5.444;2022-09-09T03:11:29;18.00;68.70
68719;DHT22;55696;52.138;5.444;2022-09-09T03:13:57;18.00;68.70
68719;DHT22;55696;52.138;5.444;2022-09-09T03:16:25;18.00;68.70
68719;DHT22;55696;52.138;5.444;2022-09-09T03:18:53;17.90;68.70
68719;DHT22;55696;52.138;5.444;2022-09-09T03:21:20;17.80;68.60
68719;DHT22;55696;52.138;5.444;2022-09-09T03:23:47;17.90;68.60
68719;DHT22;55696;52.138;5.444;2022-09-09T03:26:15;17.90;68.60
68719;DHT22;55696;52.138;5.444;2022-09-09T03:28:44;17.80;68.40
68719;DHT22;55696;52.138;5.444;2022-09-09T03:31:15;17.80;68.60
68719;DHT22;55696;52.138;5.444;2022-09-09T03:33:42;17.90;68.70
68719;DHT22;55696;52.138;5.444;2022-09-09T03:36:11;17.80;68.70
68719;DHT22;55696;52.138;5.444;2022-09-09T03:38:38;17.90;68.70
68719;DHT22;55696;52.138;5.444;2022-09-09T03:41:06;17.90;68.70
68719;DHT22;55696;52.138;5.444;2022-09-09T03:43:34;17.90;68.70
68719;DHT22;55696;52.138;5.444;2022-09-09T03:46:01;17.80;68.60
68719;DHT22;55696;52.138;5.444;2022-09-09T03:48:29;17.70;68.50
68719;DHT22;55696;52.138;5.444;2022-09-09T03:50:57;17.80;68.70
68719;DHT22;55696;52.138;5.444;2022-09-09T03:53:28;17.70;68.80
68719;DHT22;55696;52.138;5.444;2022-09-09T03:55:56;17.70;69.20
68719;DHT22;55696;52.138;5.444;2022-09-09T03:58:27;17.70;68.90
68719;DHT22;55696;52.138;5.444;2022-09-09T04:01:04;17.80;69.00
68719;DHT22;55696;52.138;5.444;2022-09-09T04:03:31;17.80;69.30
68719;DHT22;55696;52.138;5.444;2022-09-09T04:05:59;17.80;69.00
68719;DHT22;55696;52.138;5.444;2022-09-09T04:08:29;17.70;69.00
68719;DHT22;55696;52.138;5.444;2022-09-09T04:10:59;17.70;69.10
68719;DHT22;55696;52.138;5.444;2022-09-09T04:13:28;17.60;69.00
68719;DHT22;55696;52.138;5.444;2022-09-09T04:15:58;17.70;69.00
68719;DHT22;55696;52.138;5.444;2022-09-09T04:18:26;18.30;70.00
68719;DHT22;55696;52.138;5.444;2022-09-09T04:20:54;17.70;69.40
68719;DHT22;55696;52.138;5.444;2022-09-09T04:23:27;17.60;69.30
68719;DHT22;55696;52.138;5.444;2022-09-09T04:25:58;17.60;69.80
68719;DHT22;55696;52.138;5.444;2022-09-09T04:28:32;17.60;69.60
68719;DHT22;55696;52.138;5.444;2022-09-09T04:31:12;17.50;69.90
68719;DHT22;55696;52.138;5.444;2022-09-09T04:33:40;17.50;70.40
68719;DHT22;55696;52.138;5.444;2022-09-09T04:36:09;17.50;69.60
68719;DHT22;55696;52.138;5.444;2022-09-09T04:38:36;17.60;69.80
68719;DHT22;55696;52.138;5.444;2022-09-09T04:41:04;17.50;69.80
68719;DHT22;55696;52.138;5.444;2022-09-09T04:43:33;17.60;69.80
68719;DHT22;55696;52.138;5.444;2022-09-09T04:46:02;17.70;69.80
68719;DHT22;55696;52.138;5.444;2022-09-09T04:48:29;17.70;69.70
68719;DHT22;55696;52.138;5.444;2022-09-09T04:51:04;17.70;69.70
68719;DHT22;55696;52.138;5.444;2022-09-09T04:53:32;17.80;70.10
68719;DHT22;55696;52.138;5.444;2022-09-09T04:56:05;17.70;69.50
68719;DHT22;55696;52.138;5.444;2022-09-09T04:58:36;17.80;69.60
68719;DHT22;55696;52.138;5.444;2022-09-09T05:01:09;17.70;69.70
68719;DHT22;55696;52.138;5.444;2022-09-09T05:03:38;17.70;69.80
68719;DHT22;55696;52.138;5.444;2022-09-09T05:06:09;17.60;69.70
68719;DHT22;55696;52.138;5.444;2022-09-09T05:08:38;17.60;69.90
68719;DHT22;55696;52.138;5.444;2022-09-09T05:11:23;17.60;69.70
68719;DHT22;55696;52.138;5.444;2022-09-09T05:13:53;17.70;70.60
68719;DHT22;55696;52.138;5.444;2022-09-09T05:16:21;18.50;70.30
68719;DHT22;55696;52.138;5.444;2022-09-09T05:18:48;17.50;70.10
68719;DHT22;55696;52.138;5.444;2022-09-09T05:21:19;17.60;70.10
68719;DHT22;55696;52.138;5.444;2022-09-09T05:23:46;17.60;70.30
68719;DHT22;55696;52.138;5.444;2022-09-09T05:26:15;17.60;70.20
68719;DHT22;55696;52.138;5.444;2022-09-09T05:28:46;17.60;70.40
68719;DHT22;55696;52.138;5.444;2022-09-09T05:31:14;17.60;70.20
68719;DHT22;55696;52.138;5.444;2022-09-09T05:33:44;17.50;70.30
68719;DHT22;55696;52.138;5.444;2022-09-09T05:36:15;17.40;70.40
68719;DHT22;55696;52.138;5.444;2022-09-09T05:38:44;17.60;70.70
68719;DHT22;55696;52.138;5.444;2022-09-09T05:41:13;17.60;70.40
68719;DHT22;55696;52.138;5.444;2022-09-09T05:43:43;17.50;70.70
68719;DHT22;55696;52.138;5.444;2022-09-09T05:46:19;17.70;70.70
68719;DHT22;55696;52.138;5.444;2022-09-09T05:48:48;17.50;70.90
68719;DHT22;55696;52.138;5.444;2022-09-09T05:51:22;17.60;70.80
68719;DHT22;55696;52.138;5.444;2022-09-09T05:53:50;17.70;71.20
68719;DHT22;55696;52.138;5.444;2022-09-09T05:56:27;17.70;70.60
68719;DHT22;55696;52.138;5.444;2022-09-09T05:58:56;17.70;71.10
68719;DHT22;55696;52.138;5.444;2022-09-09T06:01:25;17.80;70.90
68719;DHT22;55696;52.138;5.444;2022-09-09T06:03:53;17.70;71.00
68719;DHT22;55696;52.138;5.444;2022-09-09T06:06:24;17.70;70.60
68719;DHT22;55696;52.138;5.444;2022-09-09T06:08:55;18.00;70.90
68719;DHT22;55696;52.138;5.444;2022-09-09T06:11:29;18.50;71.00
68719;DHT22;55696;52.138;5.444;2022-09-09T06:14:00;18.10;70.60
68719;DHT22;55696;52.138;5.444;2022-09-09T06:16:30;18.30;70.40
68719;DHT22;55696;52.138;5.444;2022-09-09T06:18:59;18.20;70.40
68719;DHT22;55696;52.138;5.444;2022-09-09T06:21:35;18.40;70.30
68719;DHT22;55696;52.138;5.444;2022-09-09T06:24:05;18.30;70.80
68719;DHT22;55696;52.138;5.444;2022-09-09T06:26:36;18.50;70.10
68719;DHT22;55696;52.138;5.444;2022-09-09T06:29:04;18.40;70.20
68719;DHT22;55696;52.138;5.444;2022-09-09T06:31:33;18.60;70.00
68719;DHT22;55696;52.138;5.444;2022-09-09T06:34:07;18.60;70.10
68719;DHT22;55696;52.138;5.444;2022-09-09T06:36:38;18.80;70.00
68719;DHT22;55696;52.138;5.444;2022-09-09T06:39:07;18.80;69.90
68719;DHT22;55696;52.138;5.444;2022-09-09T06:41:40;18.50;69.80
68719;DHT22;55696;52.138;5.444;2022-09-09T06:44:21;19.00;69.80
68719;DHT22;55696;52.138;5.444;2022-09-09T06:46:49;19.80;70.10
68719;DHT22;55696;52.138;5.444;2022-09-09T06:49:17;19.30;69.50
68719;DHT22;55696;52.138;5.444;2022-09-09T06:51:43;19.40;69.10
68719;DHT22;55696;52.138;5.444;2022-09-09T06:54:12;19.50;68.80
68719;DHT22;55696;52.138;5.444;2022-09-09T06:56:42;19.40;68.30
68719;DHT22;55696;52.138;5.444;2022-09-09T06:59:16;19.50;68.20
68719;DHT22;55696;52.138;5.444;2022-09-09T07:01:44;19.70;68.20
68719;DHT22;55696;52.138;5.444;2022-09-09T07:04:13;19.50;68.10
68719;DHT22;55696;52.138;5.444;2022-09-09T07:06:45;19.70;68.00
68719;DHT22;55696;52.138;5.444;2022-09-09T07:09:16;20.20;68.60
68719;DHT22;55696;52.138;5.444;2022-09-09T07:11:49;19.60;68.10
68719;DHT22;55696;52.138;5.444;2022-09-09T07:14:19;19.70;68.30
68719;DHT22;55696;52.138;5.444;2022-09-09T07:16:49;19.70;68.10
68719;DHT22;55696;52.138;5.444;2022-09-09T07:19:17;20.60;68.50
68719;DHT22;55696;52.138;5.444;2022-09-09T07:21:46;19.80;67.80
68719;DHT22;55696;52.138;5.444;2022-09-09T07:24:17;20.00;67.60
68719;DHT22;55696;52.138;5.444;2022-09-09T07:26:45;20.00;67.20
68719;DHT22;55696;52.138;5.444;2022-09-09T07:29:12;20.10;67.20
68719;DHT22;55696;52.138;5.444;2022-09-09T07:31:46;20.00;67.00
68719;DHT22;55696;52.138;5.444;2022-09-09T07:34:19;20.10;67.20
68719;DHT22;55696;52.138;5.444;2022-09-09T07:36:46;20.70;67.50
68719;DHT22;55696;52.138;5.444;2022-09-09T07:39:14;20.00;66.90
68719;DHT22;55696;52.138;5.444;2022-09-09T07:41:47;20.10;67.10
68719;DHT22;55696;52.138;5.444;2022-09-09T07:44:22;20.00;67.10
68719;DHT22;55696;52.138;5.444;2022-09-09T07:46:58;20.00;67.00
68719;DHT22;55696;52.138;5.444;2022-09-09T07:49:30;20.60;66.70
68719;DHT22;55696;52.138;5.444;2022-09-09T07:52:00;20.20;66.10
68719;DHT22;55696;52.138;5.444;2022-09-09T07:54:27;21.00;66.00
68719;DHT22;55696;52.138;5.444;2022-09-09T07:56:54;20.40;65.40
68719;DHT22;55696;52.138;5.444;2022-09-09T07:59:24;20.50;65.10
68719;DHT22;55696;52.138;5.444;2022-09-09T08:01:53;20.60;64.70
68719;DHT22;55696;52.138;5.444;2022-09-09T08:04:24;20.80;64.60
68719;DHT22;55696;52.138;5.444;2022-09-09T08:06:58;21.10;64.50
68719;DHT22;55696;52.138;5.444;2022-09-09T08:09:27;20.50;64.30
68719;DHT22;55696;52.138;5.444;2022-09-09T08:12:05;20.80;64.20
68719;DHT22;55696;52.138;5.444;2022-09-09T08:14:33;20.80;64.10
68719;DHT22;55696;52.138;5.444;2022-09-09T08:17:00;21.00;64.10
68719;DHT22;55696;52.138;5.444;2022-09-09T08:19:28;20.80;64.10
68719;DHT22;55696;52.138;5.444;2022-09-09T08:22:00;20.80;64.10
68719;DHT22;55696;52.138;5.444;2022-09-09T08:24:29;20.90;63.90
68719;DHT22;55696;52.138;5.444;2022-09-09T08:26:56;20.80;63.60
68719;DHT22;55696;52.138;5.444;2022-09-09T08:29:23;21.20;63.80
68719;DHT22;55696;52.138;5.444;2022-09-09T08:31:54;20.70;63.20
68719;DHT22;55696;52.138;5.444;2022-09-09T08:34:22;20.60;63.30
68719;DHT22;55696;52.138;5.444;2022-09-09T08:36:50;20.60;63.70
68719;DHT22;55696;52.138;5.444;2022-09-09T08:39:21;20.50;63.70
68719;DHT22;55696;52.138;5.444;2022-09-09T08:47:31;20.40;64.00
68719;DHT22;55696;52.138;5.444;2022-09-09T08:50:25;20.40;63.90
68719;DHT22;55696;52.138;5.444;2022-09-09T08:58:53;20.50;63.60
68719;DHT22;55696;52.138;5.444;2022-09-09T09:02:08;21.10;64.20
68719;DHT22;55696;52.138;5.444;2022-09-09T09:11:07;20.60;63.50
68719;DHT22;55696;52.138;5.444;2022-09-09T09:13:35;20.60;63.60
68719;DHT22;55696;52.138;5.444;2022-09-09T09:16:24;21.30;64.00
68719;DHT22;55696;52.138;5.444;2022-09-09T09:18:53;20.50;63.50
68719;DHT22;55696;52.138;5.444;2022-09-09T09:23:59;20.60;63.40
68719;DHT22;55696;52.138;5.444;2022-09-09T09:26:34;21.00;63.60
68719;DHT22;55696;52.138;5.444;2022-09-09T09:29:15;20.50;63.60
68719;DHT22;55696;52.138;5.444;2022-09-09T09:31:51;20.60;63.70
68719;DHT22;55696;52.138;5.444;2022-09-09T09:34:18;20.60;63.60
68719;DHT22;55696;52.138;5.444;2022-09-09T09:36:54;21.40;63.70
68719;DHT22;55696;52.138;5.444;2022-09-09T09:39:33;20.50;63.40
68719;DHT22;55696;52.138;5.444;2022-09-09T09:42:25;20.60;63.50
68719;DHT22;55696;52.138;5.444;2022-09-09T09:44:54;20.80;63.20
68719;DHT22;55696;52.138;5.444;2022-09-09T09:47:23;20.60;62.90
68719;DHT22;55696;52.138;5.444;2022-09-09T09:50:19;21.30;63.30
68719;DHT22;55696;52.138;5.444;2022-09-09T09:53:20;20.80;63.00
68719;DHT22;55696;52.138;5.444;2022-09-09T09:58:27;20.90;62.90
68719;DHT22;55696;52.138;5.444;2022-09-09T10:00:56;21.00;62.70
68719;DHT22;55696;52.138;5.444;2022-09-09T10:03:35;20.90;62.30
68719;DHT22;55696;52.138;5.444;2022-09-09T10:06:04;20.90;62.40
68719;DHT22;55696;52.138;5.444;2022-09-09T10:08:34;21.00;62.30
68719;DHT22;55696;52.138;5.444;2022-09-09T10:13:53;20.90;62.70
68719;DHT22;55696;52.138;5.444;2022-09-09T10:19:09;20.80;62.70
68719;DHT22;55696;52.138;5.444;2022-09-09T10:27:33;20.70;62.80
68719;DHT22;55696;52.138;5.444;2022-09-09T10:33:04;20.80;62.70
68719;DHT22;55696;52.138;5.444;2022-09-09T10:48:53;20.90;63.50
68719;DHT22;55696;52.138;5.444;2022-09-09T10:51:48;20.80;63.70
68719;DHT22;55696;52.138;5.444;2022-09-09T10:56:58;20.70;64.80
68719;DHT22;55696;52.138;5.444;2022-09-09T10:59:30;21.50;65.50
68719;DHT22;55696;52.138;5.444;2022-09-09T11:02:12;20.70;65.10
68719;DHT22;55696;52.138;5.444;2022-09-09T11:04:44;21.00;65.40
68719;DHT22;55696;52.138;5.444;2022-09-09T11:07:14;20.90;65.00
68719;DHT22;55696;52.138;5.444;2022-09-09T11:09:49;21.90;66.30
68719;DHT22;55696;52.138;5.444;2022-09-09T11:12:19;21.40;64.80
68719;DHT22;55696;52.138;5.444;2022-09-09T11:15:01;21.60;64.30
68719;DHT22;55696;52.138;5.444;2022-09-09T11:17:39;22.10;64.30
68719;DHT22;55696;52.138;5.444;2022-09-09T11:20:11;21.90;63.80
68719;DHT22;55696;52.138;5.444;2022-09-09T11:22:53;22.00;63.60
68719;DHT22;55696;52.138;5.444;2022-09-09T11:25:43;21.90;63.30
68719;DHT22;55696;52.138;5.444;2022-09-09T11:28:27;22.00;63.20
68719;DHT22;55696;52.138;5.444;2022-09-09T11:34:01;22.00;62.80
68719;DHT22;55696;52.138;5.444;2022-09-09T11:37:06;21.70;63.00
68719;DHT22;55696;52.138;5.444;2022-09-09T11:42:24;21.70;63.20
68719;DHT22;55696;52.138;5.444;2022-09-09T11:44:51;21.70;62.80
68719;DHT22;55696;52.138;5.444;2022-09-09T11:47:27;21.70;62.60
68719;DHT22;55696;52.138;5.444;2022-09-09T11:50:26;21.70;62.50
68719;DHT22;55696;52.138;5.444;2022-09-09T11:53:23;21.80;62.40
68719;DHT22;55696;52.138;5.444;2022-09-09T11:56:04;21.70;62.50
68719;DHT22;55696;52.138;5.444;2022-09-09T11:58:37;21.90;62.10
68719;DHT22;55696;52.138;5.444;2022-09-09T12:01:24;21.70;62.00
68719;DHT22;55696;52.138;5.444;2022-09-09T12:04:01;21.70;62.50
68719;DHT22;55696;52.138;5.444;2022-09-09T12:06:45;21.50;62.90
68719;DHT22;55696;52.138;5.444;2022-09-09T12:11:42;21.40;63.70
68719;DHT22;55696;52.138;5.444;2022-09-09T12:14:23;22.00;64.30
68719;DHT22;55696;52.138;5.444;2022-09-09T12:19:42;21.10;64.70
68719;DHT22;55696;52.138;5.444;2022-09-09T12:22:31;20.90;64.70
68719;DHT22;55696;52.138;5.444;2022-09-09T12:25:27;20.90;65.20
68719;DHT22;55696;52.138;5.444;2022-09-09T12:30:40;21.20;66.40
68719;DHT22;55696;52.138;5.444;2022-09-09T12:33:12;20.70;66.50
68719;DHT22;55696;52.138;5.444;2022-09-09T12:35:42;20.70;66.90
68719;DHT22;55696;52.138;5.444;2022-09-09T12:38:15;20.80;66.70
68719;DHT22;55696;52.138;5.444;2022-09-09T12:40:55;21.10;66.60
68719;DHT22;55696;52.138;5.444;2022-09-09T12:43:23;21.30;66.20
68719;DHT22;55696;52.138;5.444;2022-09-09T12:45:57;21.60;65.90
68719;DHT22;55696;52.138;5.444;2022-09-09T12:48:36;21.60;65.50
68719;DHT22;55696;52.138;5.444;2022-09-09T12:51:07;21.60;65.30
68719;DHT22;55696;52.138;5.444;2022-09-09T12:53:42;21.70;64.50
68719;DHT22;55696;52.138;5.444;2022-09-09T12:56:23;21.70;63.90
68719;DHT22;55696;52.138;5.444;2022-09-09T12:58:54;21.60;64.20
68719;DHT22;55696;52.138;5.444;2022-09-09T13:01:28;21.50;64.20
68719;DHT22;55696;52.138;5.444;2022-09-09T13:03:56;21.60;64.60
68719;DHT22;55696;52.138;5.444;2022-09-09T13:06:30;21.60;64.50
68719;DHT22;55696;52.138;5.444;2022-09-09T13:08:59;21.70;64.60
68719;DHT22;55696;52.138;5.444;2022-09-09T13:11:41;21.90;64.30
68719;DHT22;55696;52.138;5.444;2022-09-09T13:14:17;22.10;63.70
68719;DHT22;55696;52.138;5.444;2022-09-09T13:17:20;22.20;62.70
68719;DHT22;55696;52.138;5.444;2022-09-09T13:19:48;22.50;63.10
68719;DHT22;55696;52.138;5.444;2022-09-09T13:22:33;22.90;62.10
68719;DHT22;55696;52.138;5.444;2022-09-09T13:25:06;22.90;60.80
68719;DHT22;55696;52.138;5.444;2022-09-09T13:27:36;23.00;60.60
68719;DHT22;55696;52.138;5.444;2022-09-09T13:30:35;22.80;60.50
68719;DHT22;55696;52.138;5.444;2022-09-09T13:35:49;22.70;61.70
68719;DHT22;55696;52.138;5.444;2022-09-09T13:38:17;22.60;61.30
68719;DHT22;55696;52.138;5.444;2022-09-09T13:41:05;22.60;61.10
68719;DHT22;55696;52.138;5.444;2022-09-09T13:43:36;22.60;61.50
68719;DHT22;55696;52.138;5.444;2022-09-09T13:46:22;22.60;61.40
68719;DHT22;55696;52.138;5.444;2022-09-09T13:49:21;22.40;61.60
68719;DHT22;55696;52.138;5.444;2022-09-09T13:51:50;22.20;62.10
68719;DHT22;55696;52.138;5.444;2022-09-09T13:54:19;22.20;62.20
68719;DHT22;55696;52.138;5.444;2022-09-09T13:56:46;22.10;62.10
68719;DHT22;55696;52.138;5.444;2022-09-09T13:59:17;22.10;62.10
68719;DHT22;55696;52.138;5.444;2022-09-09T14:01:46;22.00;62.30
68719;DHT22;55696;52.138;5.444;2022-09-09T14:04:13;22.50;62.30
68719;DHT22;55696;52.138;5.444;2022-09-09T14:06:40;21.90;62.10
68719;DHT22;55696;52.138;5.444;2022-09-09T14:09:11;21.90;62.20
68719;DHT22;55696;52.138;5.444;2022-09-09T14:11:38;22.70;62.50
68719;DHT22;55696;52.138;5.444;2022-09-09T14:14:06;21.90;62.40
68719;DHT22;55696;52.138;5.444;2022-09-09T14:16:33;21.90;62.60
68719;DHT22;55696;52.138;5.444;2022-09-09T14:19:00;21.90;62.30
68719;DHT22;55696;52.138;5.444;2022-09-09T14:21:27;22.00;62.30
68719;DHT22;55696;52.138;5.444;2022-09-09T14:23:54;21.90;61.90
68719;DHT22;55696;52.138;5.444;2022-09-09T14:26:21;22.10;62.10
68719;DHT22;55696;52.138;5.444;2022-09-09T14:28:48;22.10;62.20
68719;DHT22;55696;52.138;5.444;2022-09-09T14:31:24;22.10;62.30
68719;DHT22;55696;52.138;5.444;2022-09-09T14:33:51;22.10;62.10
68719;DHT22;55696;52.138;5.444;2022-09-09T14:36:19;21.90;62.30
68719;DHT22;55696;52.138;5.444;2022-09-09T14:38:45;22.50;62.90
68719;DHT22;55696;52.138;5.444;2022-09-09T14:41:15;21.70;62.70
68719;DHT22;55696;52.138;5.444;2022-09-09T14:43:46;21.70;62.90
68719;DHT22;55696;52.138;5.444;2022-09-09T14:46:15;21.70;63.10
68719;DHT22;55696;52.138;5.444;2022-09-09T14:48:43;21.60;63.40
68719;DHT22;55696;52.138;5.444;2022-09-09T14:53:44;21.40;64.30
68719;DHT22;55696;52.138;5.444;2022-09-09T14:56:17;21.50;64.60
68719;DHT22;55696;52.138;5.444;2022-09-09T14:58:44;21.50;65.00
68719;DHT22;55696;52.138;5.444;2022-09-09T15:01:13;21.50;65.20
68719;DHT22;55696;52.138;5.444;2022-09-09T15:03:41;21.30;65.20
68719;DHT22;55696;52.138;5.444;2022-09-09T15:06:11;21.40;65.30
68719;DHT22;55696;52.138;5.444;2022-09-09T15:08:40;21.50;65.40
68719;DHT22;55696;52.138;5.444;2022-09-09T15:11:09;21.40;65.30
68719;DHT22;55696;52.138;5.444;2022-09-09T15:13:40;21.60;65.60
68719;DHT22;55696;52.138;5.444;2022-09-09T15:16:15;21.90;65.30
68719;DHT22;55696;52.138;5.444;2022-09-09T15:18:43;22.10;64.40
68719;DHT22;55696;52.138;5.444;2022-09-09T15:21:17;22.20;64.00
68719;DHT22;55696;52.138;5.444;2022-09-09T15:23:45;22.30;63.60
68719;DHT22;55696;52.138;5.444;2022-09-09T15:26:13;22.80;62.70
68719;DHT22;55696;52.138;5.444;2022-09-09T15:28:42;23.20;62.10
68719;DHT22;55696;52.138;5.444;2022-09-09T15:33:41;23.20;60.20
68719;DHT22;55696;52.138;5.444;2022-09-09T15:36:15;23.20;60.10
68719;DHT22;55696;52.138;5.444;2022-09-09T15:38:41;23.10;60.10
68719;DHT22;55696;52.138;5.444;2022-09-09T15:41:08;23.10;59.70
68719;DHT22;55696;52.138;5.444;2022-09-09T15:43:35;23.00;59.70
68719;DHT22;55696;52.138;5.444;2022-09-09T15:49:19;22.90;60.30
68719;DHT22;55696;52.138;5.444;2022-09-09T15:51:51;23.00;60.30
68719;DHT22;55696;52.138;5.444;2022-09-09T15:54:19;22.80;60.30
68719;DHT22;55696;52.138;5.444;2022-09-09T15:56:51;22.70;60.70
68719;DHT22;55696;52.138;5.444;2022-09-09T15:59:18;22.70;60.40
68719;DHT22;55696;52.138;5.444;2022-09-09T16:01:45;22.70;60.10
68719;DHT22;55696;52.138;5.444;2022-09-09T16:04:12;22.60;60.60
68719;DHT22;55696;52.138;5.444;2022-09-09T16:06:39;22.70;60.50
68719;DHT22;55696;52.138;5.444;2022-09-09T16:09:07;22.70;60.50
68719;DHT22;55696;52.138;5.444;2022-09-09T16:11:36;22.80;60.10
68719;DHT22;55696;52.138;5.444;2022-09-09T16:14:04;23.50;59.10
68719;DHT22;55696;52.138;5.444;2022-09-09T16:16:33;23.80;58.30
68719;DHT22;55696;52.138;5.444;2022-09-09T16:19:20;23.90;57.20
68719;DHT22;55696;52.138;5.444;2022-09-09T16:21:48;24.00;57.20
68719;DHT22;55696;52.138;5.444;2022-09-09T16:24:17;24.30;56.50
68719;DHT22;55696;52.138;5.444;2022-09-09T16:26:48;24.50;55.90
68719;DHT22;55696;52.138;5.444;2022-09-09T16:29:16;24.70;55.10
68719;DHT22;55696;52.138;5.444;2022-09-09T16:31:45;25.00;54.50
68719;DHT22;55696;52.138;5.444;2022-09-09T16:34:13;24.80;53.50
68719;DHT22;55696;52.138;5.444;2022-09-09T16:36:43;24.70;53.10
68719;DHT22;55696;52.138;5.444;2022-09-09T16:39:15;24.50;53.20
68719;DHT22;55696;52.138;5.444;2022-09-09T16:41:43;24.10;53.80
68719;DHT22;55696;52.138;5.444;2022-09-09T16:44:12;24.10;54.40
68719;DHT22;55696;52.138;5.444;2022-09-09T16:46:41;23.90;55.00
68719;DHT22;55696;52.138;5.444;2022-09-09T16:49:12;23.60;55.40
68719;DHT22;55696;52.138;5.444;2022-09-09T16:51:42;23.30;55.90
68719;DHT22;55696;52.138;5.444;2022-09-09T16:54:10;23.60;56.70
68719;DHT22;55696;52.138;5.444;2022-09-09T16:56:40;23.10;57.00
68719;DHT22;55696;52.138;5.444;2022-09-09T16:59:15;23.00;57.20
68719;DHT22;55696;52.138;5.444;2022-09-09T17:01:43;22.70;57.60
68719;DHT22;55696;52.138;5.444;2022-09-09T17:04:16;22.70;57.90
68719;DHT22;55696;52.138;5.444;2022-09-09T17:06:48;22.60;58.40
68719;DHT22;55696;52.138;5.444;2022-09-09T17:09:16;22.50;58.80
68719;DHT22;55696;52.138;5.444;2022-09-09T17:11:43;22.30;59.20
68719;DHT22;55696;52.138;5.444;2022-09-09T17:14:15;22.30;59.40
68719;DHT22;55696;52.138;5.444;2022-09-09T17:16:43;22.20;59.70
68719;DHT22;55696;52.138;5.444;2022-09-09T17:19:11;22.10;59.70
68719;DHT22;55696;52.138;5.444;2022-09-09T17:21:38;22.00;60.00
68719;DHT22;55696;52.138;5.444;2022-09-09T17:24:28;21.90;60.10
68719;DHT22;55696;52.138;5.444;2022-09-09T17:26:56;21.80;60.60
68719;DHT22;55696;52.138;5.444;2022-09-09T17:29:23;21.60;61.00
68719;DHT22;55696;52.138;5.444;2022-09-09T17:31:51;21.70;61.20
68719;DHT22;55696;52.138;5.444;2022-09-09T17:34:18;21.70;61.40
68719;DHT22;55696;52.138;5.444;2022-09-09T17:36:44;21.70;61.60
68719;DHT22;55696;52.138;5.444;2022-09-09T17:39:11;21.80;61.70
68719;DHT22;55696;52.138;5.444;2022-09-09T17:41:39;21.70;61.80
68719;DHT22;55696;52.138;5.444;2022-09-09T17:44:07;21.70;62.10
68719;DHT22;55696;52.138;5.444;2022-09-09T17:46:36;21.50;62.20
68719;DHT22;55696;52.138;5.444;2022-09-09T17:49:05;21.40;62.40
68719;DHT22;55696;52.138;5.444;2022-09-09T17:51:34;21.50;62.40
68719;DHT22;55696;52.138;5.444;2022-09-09T17:54:05;21.30;62.40
68719;DHT22;55696;52.138;5.444;2022-09-09T17:56:34;21.40;62.50